sensor_id;sensor_type;location;lat;lon;timestamp;pressure;altitude;pressure_sealevel;temperature;humidity
79028;BME280;68427;48.476;19.102;2023-04-01T00:01:12;95952.13;;;9.20;71.39
79028;BME280;68427;48.476;19.102;2023-04-01T00:03:41;95949.19;;;9.17;70.25
79028;BME280;68427;48.476;19.102;2023-04-01T00:06:09;95949.84;;;9.12;69.94
79028;BME280;68427;48.476;19.102;2023-04-01T00:08:36;95938.28;;;9.08;70.19
79028;BME280;68427;48.476;19.102;2023-04-01T00:11:03;95944.94;;;9.04;70.71
79028;BME280;68427;48.476;19.102;2023-04-01T00:13:29;95947.66;;;8.97;72.07
79028;BME280;68427;48.476;19.102;2023-04-01T00:15:55;95959.00;;;8.91;71.26
79028;BME280;68427;48.476;19.102;2023-04-01T00:18:21;95948.75;;;8.90;71.85
79028;BME280;68427;48.476;19.102;2023-04-01T00:20:49;95944.31;;;8.78;71.95
79028;BME280;68427;48.476;19.102;2023-04-01T00:23:16;95942.81;;;8.71;72.63
79028;BME280;68427;48.476;19.102;2023-04-01T00:25:42;95945.19;;;8.72;72.01
79028;BME280;68427;48.476;19.102;2023-04-01T00:28:10;95944.59;;;8.70;72.31
79028;BME280;68427;48.476;19.102;2023-04-01T00:30:36;95946.66;;;8.68;72.74
79028;BME280;68427;48.476;19.102;2023-04-01T00:33:02;95954.25;;;8.70;72.69
79028;BME280;68427;48.476;19.102;2023-04-01T00:35:28;95952.28;;;8.65;73.35
79028;BME280;68427;48.476;19.102;2023-04-01T00:37:55;95947.06;;;8.65;73.51
79028;BME280;68427;48.476;19.102;2023-04-01T00:40:27;95958.75;;;8.62;73.73
79028;BME280;68427;48.476;19.102;2023-04-01T00:42:53;95940.47;;;8.62;73.50
79028;BME280;68427;48.476;19.102;2023-04-01T00:45:30;95944.31;;;8.60;73.88
79028;BME280;68427;48.476;19.102;2023-04-01T00:47:58;95949.78;;;8.58;73.54
79028;BME280;68427;48.476;19.102;2023-04-01T00:50:26;95946.38;;;8.58;73.47
79028;BME280;68427;48.476;19.102;2023-04-01T00:52:53;95948.19;;;8.57;73.57
79028;BME280;68427;48.476;19.102;2023-04-01T00:55:21;95949.13;;;8.63;72.95
79028;BME280;68427;48.476;19.102;2023-04-01T00:57:49;95950.13;;;8.62;73.35
79028;BME280;68427;48.476;19.102;2023-04-01T01:00:16;95962.53;;;8.67;73.11
79028;BME280;68427;48.476;19.102;2023-04-01T01:02:45;95951.28;;;8.66;73.17
79028;BME280;68427;48.476;19.102;2023-04-01T01:05:12;95951.75;;;8.63;73.48
79028;BME280;68427;48.476;19.102;2023-04-01T01:07:42;95952.28;;;8.65;73.70
79028;BME280;68427;48.476;19.102;2023-04-01T01:10:15;95952.28;;;8.65;73.30
79028;BME280;68427;48.476;19.102;2023-04-01T01:12:46;95954.91;;;8.65;73.37
79028;BME280;68427;48.476;19.102;2023-04-01T01:15:19;95953.09;;;8.65;72.91
79028;BME280;68427;48.476;19.102;2023-04-01T01:17:56;95943.47;;;8.66;73.25
79028;BME280;68427;48.476;19.102;2023-04-01T01:24:02;95954.91;;;8.65;72.84
79028;BME280;68427;48.476;19.102;2023-04-01T01:29:49;95950.22;;;8.55;73.35
79028;BME280;68427;48.476;19.102;2023-04-01T01:32:35;95947.81;;;8.54;73.52
79028;BME280;68427;48.476;19.102;2023-04-01T01:35:19;95937.25;;;8.49;73.73
79028;BME280;68427;48.476;19.102;2023-04-01T01:37:46;95941.91;;;8.47;73.80
79028;BME280;68427;48.476;19.102;2023-04-01T01:40:15;95950.97;;;8.44;73.65
79028;BME280;68427;48.476;19.102;2023-04-01T01:42:45;95943.13;;;8.44;73.17
79028;BME280;68427;48.476;19.102;2023-04-01T01:45:14;95939.72;;;8.43;73.09
79028;BME280;68427;48.476;19.102;2023-04-01T01:47:43;95937.56;;;8.40;74.39
79028;BME280;68427;48.476;19.102;2023-04-01T01:50:11;95949.06;;;8.33;74.18
79028;BME280;68427;48.476;19.102;2023-04-01T01:52:39;95953.31;;;8.27;74.49
79028;BME280;68427;48.476;19.102;2023-04-01T01:55:23;95950.56;;;8.22;74.81
79028;BME280;68427;48.476;19.102;2023-04-01T01:57:51;95949.06;;;8.14;75.18
79028;BME280;68427;48.476;19.102;2023-04-01T02:00:18;95950.53;;;8.10;74.31
79028;BME280;68427;48.476;19.102;2023-04-01T02:02:46;95952.25;;;7.98;74.64
79028;BME280;68427;48.476;19.102;2023-04-01T02:05:17;95954.91;;;7.91;74.48
79028;BME280;68427;48.476;19.102;2023-04-01T02:07:49;95949.69;;;7.91;73.86
79028;BME280;68427;48.476;19.102;2023-04-01T02:10:18;95944.19;;;7.81;74.59
79028;BME280;68427;48.476;19.102;2023-04-01T02:12:46;95950.69;;;7.72;75.21
79028;BME280;68427;48.476;19.102;2023-04-01T02:15:14;95943.09;;;7.70;74.60
79028;BME280;68427;48.476;19.102;2023-04-01T02:17:43;95939.59;;;7.58;74.81
79028;BME280;68427;48.476;19.102;2023-04-01T02:20:13;95945.00;;;7.56;74.98
79028;BME280;68427;48.476;19.102;2023-04-01T02:22:46;95946.06;;;7.49;75.62
79028;BME280;68427;48.476;19.102;2023-04-01T02:25:15;95944.75;;;7.40;75.65
79028;BME280;68427;48.476;19.102;2023-04-01T02:27:43;95939.97;;;7.36;75.57
79028;BME280;68427;48.476;19.102;2023-04-01T02:30:11;95941.81;;;7.29;75.83
79028;BME280;68427;48.476;19.102;2023-04-01T02:32:37;95949.63;;;7.29;75.43
79028;BME280;68427;48.476;19.102;2023-04-01T02:35:05;95939.06;;;7.24;75.43
79028;BME280;68427;48.476;19.102;2023-04-01T02:37:32;95939.44;;;7.28;75.38
79028;BME280;68427;48.476;19.102;2023-04-01T02:40:00;95933.31;;;7.16;75.95
79028;BME280;68427;48.476;19.102;2023-04-01T02:42:26;95930.34;;;7.12;75.78
79028;BME280;68427;48.476;19.102;2023-04-01T02:44:52;95933.78;;;7.06;76.95
79028;BME280;68427;48.476;19.102;2023-04-01T02:47:17;95952.00;;;7.06;76.72
79028;BME280;68427;48.476;19.102;2023-04-01T02:49:43;95927.25;;;6.97;76.89
79028;BME280;68427;48.476;19.102;2023-04-01T02:52:09;95945.47;;;6.97;76.75
79028;BME280;68427;48.476;19.102;2023-04-01T02:54:35;95938.44;;;6.97;76.11
79028;BME280;68427;48.476;19.102;2023-04-01T02:57:02;95948.28;;;6.95;76.45
79028;BME280;68427;48.476;19.102;2023-04-01T02:59:28;95941.72;;;6.86;76.03
79028;BME280;68427;48.476;19.102;2023-04-01T03:01:53;95939.91;;;6.86;76.12
79028;BME280;68427;48.476;19.102;2023-04-01T03:04:19;95930.34;;;6.80;76.47
79028;BME280;68427;48.476;19.102;2023-04-01T03:06:45;95930.59;;;6.72;76.37
79028;BME280;68427;48.476;19.102;2023-04-01T03:09:11;95928.84;;;6.59;76.48
79028;BME280;68427;48.476;19.102;2023-04-01T03:11:36;95924.06;;;6.56;75.84
79028;BME280;68427;48.476;19.102;2023-04-01T03:14:03;95930.31;;;6.48;76.36
79028;BME280;68427;48.476;19.102;2023-04-01T03:16:29;95929.72;;;6.46;76.30
79028;BME280;68427;48.476;19.102;2023-04-01T03:18:55;95929.56;;;6.41;76.60
79028;BME280;68427;48.476;19.102;2023-04-01T03:21:24;95932.16;;;6.41;76.61
79028;BME280;68427;48.476;19.102;2023-04-01T03:23:50;95924.41;;;6.35;76.97
79028;BME280;68427;48.476;19.102;2023-04-01T03:26:16;95904.22;;;6.30;77.87
79028;BME280;68427;48.476;19.102;2023-04-01T03:28:42;95903.25;;;6.24;78.09
79028;BME280;68427;48.476;19.102;2023-04-01T03:31:09;95902.66;;;6.22;77.54
79028;BME280;68427;48.476;19.102;2023-04-01T03:33:35;95901.66;;;6.17;78.11
79028;BME280;68427;48.476;19.102;2023-04-01T03:36:01;95912.88;;;6.11;78.35
79028;BME280;68427;48.476;19.102;2023-04-01T03:38:28;95916.50;;;6.03;78.50
79028;BME280;68427;48.476;19.102;2023-04-01T03:40:54;95917.31;;;5.97;79.08
79028;BME280;68427;48.476;19.102;2023-04-01T03:43:20;95916.53;;;5.96;79.25
79028;BME280;68427;48.476;19.102;2023-04-01T03:45:46;95922.50;;;5.97;79.43
79028;BME280;68427;48.476;19.102;2023-04-01T03:48:14;95924.31;;;5.96;79.74
79028;BME280;68427;48.476;19.102;2023-04-01T03:50:39;95923.94;;;5.99;79.10
79028;BME280;68427;48.476;19.102;2023-04-01T03:53:05;95923.34;;;5.97;79.39
79028;BME280;68427;48.476;19.102;2023-04-01T03:55:31;95930.13;;;5.98;79.32
79028;BME280;68427;48.476;19.102;2023-04-01T03:57:57;95936.31;;;5.91;79.79
79028;BME280;68427;48.476;19.102;2023-04-01T04:00:22;95933.31;;;5.87;80.16
79028;BME280;68427;48.476;19.102;2023-04-01T04:02:48;95936.31;;;5.84;79.22
79028;BME280;68427;48.476;19.102;2023-04-01T04:05:15;95942.94;;;5.80;79.20
79028;BME280;68427;48.476;19.102;2023-04-01T04:07:41;95940.13;;;5.75;79.42
79028;BME280;68427;48.476;19.102;2023-04-01T04:10:07;95934.16;;;5.74;79.72
79028;BME280;68427;48.476;19.102;2023-04-01T04:12:33;95931.97;;;5.65;78.69
79028;BME280;68427;48.476;19.102;2023-04-01T04:14:59;95930.75;;;5.60;78.56
79028;BME280;68427;48.476;19.102;2023-04-01T04:17:25;95951.13;;;5.63;78.55
79028;BME280;68427;48.476;19.102;2023-04-01T04:19:51;95962.13;;;5.59;79.72
79028;BME280;68427;48.476;19.102;2023-04-01T04:22:18;95967.53;;;5.57;80.25
79028;BME280;68427;48.476;19.102;2023-04-01T04:24:44;95963.91;;;5.58;80.43
79028;BME280;68427;48.476;19.102;2023-04-01T04:27:09;95973.72;;;5.56;80.98
79028;BME280;68427;48.476;19.102;2023-04-01T04:29:35;95964.53;;;5.47;81.95
79028;BME280;68427;48.476;19.102;2023-04-01T04:32:02;95967.31;;;5.46;80.99
79028;BME280;68427;48.476;19.102;2023-04-01T04:34:28;95983.72;;;5.39;81.31
79028;BME280;68427;48.476;19.102;2023-04-01T04:36:54;95979.13;;;5.35;81.83
79028;BME280;68427;48.476;19.102;2023-04-01T04:39:21;95976.72;;;5.40;80.70
79028;BME280;68427;48.476;19.102;2023-04-01T04:41:46;95980.91;;;5.41;80.81
79028;BME280;68427;48.476;19.102;2023-04-01T04:44:12;95982.09;;;5.38;80.67
79028;BME280;68427;48.476;19.102;2023-04-01T04:46:38;95987.91;;;5.40;80.94
79028;BME280;68427;48.476;19.102;2023-04-01T04:49:04;95991.72;;;5.45;81.01
79028;BME280;68427;48.476;19.102;2023-04-01T04:51:30;95994.31;;;5.45;80.66
79028;BME280;68427;48.476;19.102;2023-04-01T04:53:59;95983.50;;;5.41;81.53
79028;BME280;68427;48.476;19.102;2023-04-01T04:56:26;95989.69;;;5.47;81.24
79028;BME280;68427;48.476;19.102;2023-04-01T04:58:52;95987.31;;;5.52;81.46
79028;BME280;68427;48.476;19.102;2023-04-01T05:01:18;95988.50;;;5.49;81.32
79028;BME280;68427;48.476;19.102;2023-04-01T05:03:44;96003.88;;;5.57;81.27
79028;BME280;68427;48.476;19.102;2023-04-01T05:06:12;95995.88;;;5.66;81.10
79028;BME280;68427;48.476;19.102;2023-04-01T05:08:38;96004.66;;;5.71;81.56
79028;BME280;68427;48.476;19.102;2023-04-01T05:11:07;95999.66;;;5.83;81.59
79028;BME280;68427;48.476;19.102;2023-04-01T05:13:36;96001.25;;;5.91;80.98
79028;BME280;68427;48.476;19.102;2023-04-01T05:16:02;95995.50;;;6.02;81.24
79028;BME280;68427;48.476;19.102;2023-04-01T05:18:28;95993.25;;;6.12;81.20
79028;BME280;68427;48.476;19.102;2023-04-01T05:20:54;95990.03;;;6.17;80.88
79028;BME280;68427;48.476;19.102;2023-04-01T05:23:22;95999.63;;;6.30;81.59
79028;BME280;68427;48.476;19.102;2023-04-01T05:25:47;95992.78;;;6.35;80.81
79028;BME280;68427;48.476;19.102;2023-04-01T05:28:14;95997.34;;;6.46;81.26
79028;BME280;68427;48.476;19.102;2023-04-01T05:30:41;96001.31;;;6.62;80.09
79028;BME280;68427;48.476;19.102;2023-04-01T05:33:07;95990.22;;;6.80;79.79
79028;BME280;68427;48.476;19.102;2023-04-01T05:35:33;95982.53;;;6.92;78.94
79028;BME280;68427;48.476;19.102;2023-04-01T05:37:59;95994.88;;;7.03;79.15
79028;BME280;68427;48.476;19.102;2023-04-01T05:40:25;96006.69;;;7.06;79.50
79028;BME280;68427;48.476;19.102;2023-04-01T05:42:51;96013.63;;;7.12;78.77
79028;BME280;68427;48.476;19.102;2023-04-01T05:45:16;96015.63;;;7.17;79.79
79028;BME280;68427;48.476;19.102;2023-04-01T05:47:44;96006.56;;;7.26;79.78
79028;BME280;68427;48.476;19.102;2023-04-01T05:50:10;95991.06;;;7.38;78.47
79028;BME280;68427;48.476;19.102;2023-04-01T05:52:36;95993.75;;;7.49;78.81
79028;BME280;68427;48.476;19.102;2023-04-01T05:55:02;95974.78;;;7.67;77.89
79028;BME280;68427;48.476;19.102;2023-04-01T05:57:28;95971.19;;;7.87;77.17
79028;BME280;68427;48.476;19.102;2023-04-01T05:59:53;95972.81;;;8.06;76.24
79028;BME280;68427;48.476;19.102;2023-04-01T06:02:19;95969.69;;;8.34;75.67
79028;BME280;68427;48.476;19.102;2023-04-01T06:04:46;95979.63;;;8.62;74.60
79028;BME280;68427;48.476;19.102;2023-04-01T06:07:13;95971.19;;;8.79;74.20
79028;BME280;68427;48.476;19.102;2023-04-01T06:09:39;95973.16;;;8.83;73.66
79028;BME280;68427;48.476;19.102;2023-04-01T06:12:23;95979.38;;;8.82;74.43
79028;BME280;68427;48.476;19.102;2023-04-01T06:15:00;95982.81;;;8.83;74.14
79028;BME280;68427;48.476;19.102;2023-04-01T06:17:40;95984.84;;;8.81;74.53
79028;BME280;68427;48.476;19.102;2023-04-01T06:20:12;95996.06;;;8.81;75.37
79028;BME280;68427;48.476;19.102;2023-04-01T06:22:57;95991.56;;;8.89;75.18
79028;BME280;68427;48.476;19.102;2023-04-01T06:25:40;95990.78;;;9.00;74.93
79028;BME280;68427;48.476;19.102;2023-04-01T06:28:35;95986.19;;;9.67;71.33
79028;BME280;68427;48.476;19.102;2023-04-01T06:31:11;95990.19;;;9.93;70.06
79028;BME280;68427;48.476;19.102;2023-04-01T06:33:53;95996.66;;;10.14;68.61
79028;BME280;68427;48.476;19.102;2023-04-01T06:39:26;96005.84;;;10.05;69.64
79028;BME280;68427;48.476;19.102;2023-04-01T06:42:11;96005.31;;;10.03;69.69
79028;BME280;68427;48.476;19.102;2023-04-01T06:44:46;96011.34;;;10.04;69.73
79028;BME280;68427;48.476;19.102;2023-04-01T06:47:27;96007.78;;;9.98;70.23
79028;BME280;68427;48.476;19.102;2023-04-01T06:50:00;96016.44;;;9.99;69.77
79028;BME280;68427;48.476;19.102;2023-04-01T06:52:38;96007.56;;;10.11;70.20
79028;BME280;68427;48.476;19.102;2023-04-01T06:55:18;95997.66;;;10.25;68.91
79028;BME280;68427;48.476;19.102;2023-04-01T06:57:48;96003.78;;;10.54;67.84
79028;BME280;68427;48.476;19.102;2023-04-01T07:00:19;96001.28;;;11.79;64.05
79028;BME280;68427;48.476;19.102;2023-04-01T07:02:54;96003.31;;;12.11;62.25
79028;BME280;68427;48.476;19.102;2023-04-01T07:05:24;96002.59;;;12.16;61.78
79028;BME280;68427;48.476;19.102;2023-04-01T07:07:59;95998.72;;;13.98;55.15
79028;BME280;68427;48.476;19.102;2023-04-01T07:10:33;95990.09;;;15.49;51.06
79028;BME280;68427;48.476;19.102;2023-04-01T07:13:05;96000.84;;;17.10;47.07
79028;BME280;68427;48.476;19.102;2023-04-01T07:15:37;96007.22;;;17.09;45.28
79028;BME280;68427;48.476;19.102;2023-04-01T07:18:09;96004.97;;;16.81;45.74
79028;BME280;68427;48.476;19.102;2023-04-01T07:20:38;96007.06;;;16.74;44.78
79028;BME280;68427;48.476;19.102;2023-04-01T07:23:10;96010.69;;;16.13;47.14
79028;BME280;68427;48.476;19.102;2023-04-01T07:25:43;96006.50;;;18.11;42.60
79028;BME280;68427;48.476;19.102;2023-04-01T07:28:12;96007.28;;;17.38;43.30
79028;BME280;68427;48.476;19.102;2023-04-01T07:30:47;95999.94;;;16.70;44.90
79028;BME280;68427;48.476;19.102;2023-04-01T07:33:20;95998.28;;;16.04;46.12
79028;BME280;68427;48.476;19.102;2023-04-01T07:35:54;95992.75;;;15.80;46.97
79028;BME280;68427;48.476;19.102;2023-04-01T07:38:32;95993.81;;;15.73;46.34
79028;BME280;68427;48.476;19.102;2023-04-01T07:41:07;95997.88;;;16.61;44.78
79028;BME280;68427;48.476;19.102;2023-04-01T07:43:48;95980.00;;;16.17;45.23
79028;BME280;68427;48.476;19.102;2023-04-01T07:46:24;96005.94;;;15.90;45.94
79028;BME280;68427;48.476;19.102;2023-04-01T07:49:00;95994.03;;;15.46;47.58
79028;BME280;68427;48.476;19.102;2023-04-01T07:51:32;95990.31;;;15.27;48.05
79028;BME280;68427;48.476;19.102;2023-04-01T07:54:06;95992.84;;;14.76;49.80
79028;BME280;68427;48.476;19.102;2023-04-01T07:56:38;95984.22;;;14.38;50.15
79028;BME280;68427;48.476;19.102;2023-04-01T07:59:14;95976.81;;;14.30;49.77
79028;BME280;68427;48.476;19.102;2023-04-01T08:01:48;95989.75;;;15.04;49.29
79028;BME280;68427;48.476;19.102;2023-04-01T08:04:31;95983.88;;;16.56;44.98
79028;BME280;68427;48.476;19.102;2023-04-01T08:07:06;95980.16;;;16.62;45.36
79028;BME280;68427;48.476;19.102;2023-04-01T08:09:42;95979.78;;;17.39;42.79
79028;BME280;68427;48.476;19.102;2023-04-01T08:12:17;95984.22;;;17.04;42.15
79028;BME280;68427;48.476;19.102;2023-04-01T08:14:53;95983.56;;;16.68;44.46
79028;BME280;68427;48.476;19.102;2023-04-01T08:17:27;95983.75;;;16.06;43.82
79028;BME280;68427;48.476;19.102;2023-04-01T08:20:08;95985.34;;;15.46;46.24
79028;BME280;68427;48.476;19.102;2023-04-01T08:22:39;95994.75;;;15.01;46.66
79028;BME280;68427;48.476;19.102;2023-04-01T08:25:13;95986.94;;;14.53;47.57
79028;BME280;68427;48.476;19.102;2023-04-01T08:27:44;95991.06;;;14.39;48.19
79028;BME280;68427;48.476;19.102;2023-04-01T08:30:17;95994.31;;;14.09;50.58
79028;BME280;68427;48.476;19.102;2023-04-01T08:32:47;96004.94;;;13.87;50.22
79028;BME280;68427;48.476;19.102;2023-04-01T08:35:20;96006.59;;;13.60;51.00
79028;BME280;68427;48.476;19.102;2023-04-01T08:37:50;96006.09;;;13.64;51.75
79028;BME280;68427;48.476;19.102;2023-04-01T08:40:37;96005.97;;;13.48;50.83
79028;BME280;68427;48.476;19.102;2023-04-01T08:43:09;96001.75;;;13.47;51.66
79028;BME280;68427;48.476;19.102;2023-04-01T08:46:06;96002.31;;;13.49;51.41
79028;BME280;68427;48.476;19.102;2023-04-01T08:48:52;96002.69;;;13.36;51.85
79028;BME280;68427;48.476;19.102;2023-04-01T08:51:44;96015.34;;;13.39;51.24
79028;BME280;68427;48.476;19.102;2023-04-01T08:54:27;96010.03;;;13.34;52.18
79028;BME280;68427;48.476;19.102;2023-04-01T08:57:01;96014.94;;;13.25;53.87
79028;BME280;68427;48.476;19.102;2023-04-01T08:59:50;96015.53;;;13.27;54.49
79028;BME280;68427;48.476;19.102;2023-04-01T09:02:54;96022.50;;;13.22;53.93
79028;BME280;68427;48.476;19.102;2023-04-01T09:09:02;96025.06;;;13.66;51.74
79028;BME280;68427;48.476;19.102;2023-04-01T09:11:43;96019.19;;;14.28;49.92
79028;BME280;68427;48.476;19.102;2023-04-01T09:14:51;96011.81;;;14.73;49.83
79028;BME280;68427;48.476;19.102;2023-04-01T09:17:37;96007.44;;;15.14;48.12
79028;BME280;68427;48.476;19.102;2023-04-01T09:20:19;96007.47;;;15.40;47.32
79028;BME280;68427;48.476;19.102;2023-04-01T09:23:15;96016.72;;;15.42;47.07
79028;BME280;68427;48.476;19.102;2023-04-01T09:25:56;96023.03;;;15.21;47.14
79028;BME280;68427;48.476;19.102;2023-04-01T09:28:28;96017.41;;;14.91;47.80
79028;BME280;68427;48.476;19.102;2023-04-01T09:31:18;96014.16;;;14.69;49.71
79028;BME280;68427;48.476;19.102;2023-04-01T09:36:46;96011.19;;;15.44;48.48
79028;BME280;68427;48.476;19.102;2023-04-01T09:39:33;96017.53;;;15.48;47.78
79028;BME280;68427;48.476;19.102;2023-04-01T09:42:23;96019.09;;;15.33;47.47
79028;BME280;68427;48.476;19.102;2023-04-01T09:44:58;96026.47;;;15.26;48.77
79028;BME280;68427;48.476;19.102;2023-04-01T09:47:41;96019.66;;;15.97;47.22
79028;BME280;68427;48.476;19.102;2023-04-01T09:50:29;96019.84;;;16.52;45.26
79028;BME280;68427;48.476;19.102;2023-04-01T09:53:08;96017.38;;;16.86;44.31
79028;BME280;68427;48.476;19.102;2023-04-01T10:02:02;96025.22;;;20.24;38.33
79028;BME280;68427;48.476;19.102;2023-04-01T10:04:57;96021.81;;;19.72;37.51
79028;BME280;68427;48.476;19.102;2023-04-01T10:08:05;96024.38;;;18.77;38.75
79028;BME280;68427;48.476;19.102;2023-04-01T10:10:53;96023.53;;;17.65;41.65
79028;BME280;68427;48.476;19.102;2023-04-01T10:19:50;96025.16;;;21.85;34.07
79028;BME280;68427;48.476;19.102;2023-04-01T10:22:43;96024.19;;;20.20;37.28
79028;BME280;68427;48.476;19.102;2023-04-01T10:25:34;96030.13;;;20.31;36.36
79028;BME280;68427;48.476;19.102;2023-04-01T10:28:30;96024.09;;;19.79;37.41
79028;BME280;68427;48.476;19.102;2023-04-01T10:31:35;96015.97;;;19.89;37.32
79028;BME280;68427;48.476;19.102;2023-04-01T10:37:28;96017.09;;;18.11;41.20
79028;BME280;68427;48.476;19.102;2023-04-01T10:40:36;96021.59;;;17.37;42.92
79028;BME280;68427;48.476;19.102;2023-04-01T10:43:26;96024.66;;;17.10;43.01
79028;BME280;68427;48.476;19.102;2023-04-01T10:46:45;96021.84;;;16.96;43.81
79028;BME280;68427;48.476;19.102;2023-04-01T10:58:46;96023.31;;;16.42;44.73
79028;BME280;68427;48.476;19.102;2023-04-01T11:01:42;96033.88;;;16.37;45.20
79028;BME280;68427;48.476;19.102;2023-04-01T11:07:58;96031.47;;;17.26;43.61
79028;BME280;68427;48.476;19.102;2023-04-01T11:11:00;96030.72;;;17.15;43.08
79028;BME280;68427;48.476;19.102;2023-04-01T11:17:20;96029.13;;;16.44;45.22
79028;BME280;68427;48.476;19.102;2023-04-01T11:19:56;96032.06;;;16.27;46.17
79028;BME280;68427;48.476;19.102;2023-04-01T11:25:46;96024.97;;;15.71;46.29
79028;BME280;68427;48.476;19.102;2023-04-01T11:28:40;96030.53;;;15.80;45.41
79028;BME280;68427;48.476;19.102;2023-04-01T11:31:30;96041.59;;;15.72;46.24
79028;BME280;68427;48.476;19.102;2023-04-01T11:34:04;96036.81;;;15.64;47.27
79028;BME280;68427;48.476;19.102;2023-04-01T11:36:42;96038.69;;;16.04;47.35
79028;BME280;68427;48.476;19.102;2023-04-01T11:39:20;96042.09;;;16.20;46.84
79028;BME280;68427;48.476;19.102;2023-04-01T11:41:52;96031.72;;;16.54;44.92
79028;BME280;68427;48.476;19.102;2023-04-01T11:44:24;96043.03;;;16.91;45.06
79028;BME280;68427;48.476;19.102;2023-04-01T11:47:02;96035.47;;;17.18;44.06
79028;BME280;68427;48.476;19.102;2023-04-01T11:49:37;96049.25;;;17.15;44.03
79028;BME280;68427;48.476;19.102;2023-04-01T11:52:16;96038.53;;;17.75;44.12
79028;BME280;68427;48.476;19.102;2023-04-01T11:55:02;96037.66;;;17.90;42.04
79028;BME280;68427;48.476;19.102;2023-04-01T11:57:51;96039.03;;;17.48;41.68
79028;BME280;68427;48.476;19.102;2023-04-01T12:00:58;96042.72;;;16.92;44.15
79028;BME280;68427;48.476;19.102;2023-04-01T12:03:44;96042.00;;;16.71;45.35
79028;BME280;68427;48.476;19.102;2023-04-01T12:06:21;96036.03;;;17.10;44.45
79028;BME280;68427;48.476;19.102;2023-04-01T12:08:54;96036.97;;;17.74;44.00
79028;BME280;68427;48.476;19.102;2023-04-01T12:11:27;96040.13;;;17.81;43.37
79028;BME280;68427;48.476;19.102;2023-04-01T12:14:03;96047.88;;;17.67;42.60
79028;BME280;68427;48.476;19.102;2023-04-01T12:16:42;96039.47;;;17.55;42.88
79028;BME280;68427;48.476;19.102;2023-04-01T12:19:15;96048.00;;;16.97;43.91
79028;BME280;68427;48.476;19.102;2023-04-01T12:21:54;96054.47;;;16.40;45.65
79028;BME280;68427;48.476;19.102;2023-04-01T12:24:45;96051.13;;;15.88;45.88
79028;BME280;68427;48.476;19.102;2023-04-01T12:27:23;96061.88;;;15.56;47.12
79028;BME280;68427;48.476;19.102;2023-04-01T12:30:20;96057.53;;;15.09;49.09
79028;BME280;68427;48.476;19.102;2023-04-01T12:32:52;96055.94;;;15.03;49.29
79028;BME280;68427;48.476;19.102;2023-04-01T12:35:24;96058.53;;;14.87;49.98
79028;BME280;68427;48.476;19.102;2023-04-01T12:38:06;96065.63;;;14.92;49.06
79028;BME280;68427;48.476;19.102;2023-04-01T12:40:45;96063.28;;;14.96;50.25
79028;BME280;68427;48.476;19.102;2023-04-01T12:43:28;96055.94;;;15.03;48.33
79028;BME280;68427;48.476;19.102;2023-04-01T12:46:05;96058.84;;;15.06;49.28
79028;BME280;68427;48.476;19.102;2023-04-01T12:49:03;96058.59;;;15.08;48.21
79028;BME280;68427;48.476;19.102;2023-04-01T12:51:52;96060.34;;;14.87;49.39
79028;BME280;68427;48.476;19.102;2023-04-01T12:54:48;96058.13;;;14.58;48.97
79028;BME280;68427;48.476;19.102;2023-04-01T12:57:34;96060.06;;;14.36;49.39
79028;BME280;68427;48.476;19.102;2023-04-01T13:00:30;96059.75;;;14.27;50.31
79028;BME280;68427;48.476;19.102;2023-04-01T13:03:13;96062.84;;;14.19;50.53
79028;BME280;68427;48.476;19.102;2023-04-01T13:08:49;96066.47;;;14.08;51.76
79028;BME280;68427;48.476;19.102;2023-04-01T13:11:24;96065.88;;;14.00;51.32
79028;BME280;68427;48.476;19.102;2023-04-01T13:16:45;96062.91;;;13.92;52.57
79028;BME280;68427;48.476;19.102;2023-04-01T13:19:18;96056.75;;;13.81;51.77
79028;BME280;68427;48.476;19.102;2023-04-01T13:21:53;96061.53;;;13.84;52.44
79028;BME280;68427;48.476;19.102;2023-04-01T13:24:35;96056.97;;;14.07;51.60
79028;BME280;68427;48.476;19.102;2023-04-01T13:27:12;96062.84;;;14.19;51.89
79028;BME280;68427;48.476;19.102;2023-04-01T13:29:43;96067.94;;;14.31;50.66
79028;BME280;68427;48.476;19.102;2023-04-01T13:32:20;96065.09;;;14.37;51.27
79028;BME280;68427;48.476;19.102;2023-04-01T13:34:59;96058.78;;;14.43;50.12
79028;BME280;68427;48.476;19.102;2023-04-01T13:37:40;96071.09;;;14.33;50.74
79028;BME280;68427;48.476;19.102;2023-04-01T13:43:10;96070.50;;;14.20;51.08
79028;BME280;68427;48.476;19.102;2023-04-01T13:45:46;96068.34;;;14.12;51.15
79028;BME280;68427;48.476;19.102;2023-04-01T13:48:28;96072.19;;;13.99;52.89
79028;BME280;68427;48.476;19.102;2023-04-01T13:51:17;96075.34;;;13.69;53.63
79028;BME280;68427;48.476;19.102;2023-04-01T13:54:12;96070.34;;;13.68;53.49
79028;BME280;68427;48.476;19.102;2023-04-01T13:56:50;96082.19;;;13.70;53.18
79028;BME280;68427;48.476;19.102;2023-04-01T13:59:40;96073.81;;;13.46;52.04
79028;BME280;68427;48.476;19.102;2023-04-01T14:02:29;96068.06;;;13.49;53.84
79028;BME280;68427;48.476;19.102;2023-04-01T14:05:19;96070.88;;;13.21;54.34
79028;BME280;68427;48.476;19.102;2023-04-01T14:07:58;96068.03;;;13.22;53.98
79028;BME280;68427;48.476;19.102;2023-04-01T14:10:36;96064.69;;;13.27;54.35
79028;BME280;68427;48.476;19.102;2023-04-01T14:13:12;96070.47;;;13.29;54.16
79028;BME280;68427;48.476;19.102;2023-04-01T14:16:00;96061.09;;;13.16;53.99
79028;BME280;68427;48.476;19.102;2023-04-01T14:18:45;96069.84;;;13.22;53.95
79028;BME280;68427;48.476;19.102;2023-04-01T14:21:17;96053.78;;;13.18;54.93
79028;BME280;68427;48.476;19.102;2023-04-01T14:23:59;96060.94;;;13.23;54.45
79028;BME280;68427;48.476;19.102;2023-04-01T14:26:57;96058.75;;;13.14;55.30
79028;BME280;68427;48.476;19.102;2023-04-01T14:29:30;96065.41;;;13.22;55.89
79028;BME280;68427;48.476;19.102;2023-04-01T14:32:07;96071.13;;;13.19;56.54
79028;BME280;68427;48.476;19.102;2023-04-01T14:34:54;96074.97;;;13.11;55.57